sensor_id;sensor_type;location;lat;lon;timestamp;pressure;altitude;pressure_sealevel;temperature;humidity
70304;BME280;57712;48.752;11.348;2023-07-22T00:00:02;97478.91;;;15.11;100.00
70304;BME280;57712;48.752;11.348;2023-07-22T00:02:32;97469.75;;;15.14;100.00
70304;BME280;57712;48.752;11.348;2023-07-22T00:04:58;97478.59;;;15.09;100.00
70304;BME280;57712;48.752;11.348;2023-07-22T00:07:25;97482.97;;;14.97;100.00
70304;BME280;57712;48.752;11.348;2023-07-22T00:09:53;97478.53;;;14.99;100.00
70304;BME280;57712;48.752;11.348;2023-07-22T00:12:20;97480.31;;;14.71;100.00
70304;BME280;57712;48.752;11.348;2023-07-22T00:14:46;97487.47;;;14.69;100.00
70304;BME280;57712;48.752;11.348;2023-07-22T00:17:13;97487.81;;;14.71;100.00
70304;BME280;57712;48.752;11.348;2023-07-22T00:19:40;97482.09;;;14.65;100.00
70304;BME280;57712;48.752;11.348;2023-07-22T00:22:06;97486.53;;;14.63;100.00
70304;BME280;57712;48.752;11.348;2023-07-22T00:24:34;97482.09;;;14.65;100.00
70304;BME280;57712;48.752;11.348;2023-07-22T00:27:00;97475.28;;;14.57;100.00
70304;BME280;57712;48.752;11.348;2023-07-22T00:29:27;97481.16;;;14.47;100.00
70304;BME280;57712;48.752;11.348;2023-07-22T00:31:54;97474.19;;;14.55;100.00
70304;BME280;57712;48.752;11.348;2023-07-22T00:34:21;97476.19;;;14.54;100.00
70304;BME280;57712;48.752;11.348;2023-07-22T00:36:49;97467.00;;;14.57;100.00
70304;BME280;57712;48.752;11.348;2023-07-22T00:39:16;97465.63;;;14.40;100.00
70304;BME280;57712;48.752;11.348;2023-07-22T00:41:42;97459.78;;;14.51;100.00
70304;BME280;57712;48.752;11.348;2023-07-22T00:44:13;97461.53;;;14.44;100.00
70304;BME280;57712;48.752;11.348;2023-07-22T00:46:40;97463.75;;;14.50;100.00
70304;BME280;57712;48.752;11.348;2023-07-22T00:49:08;97464.69;;;14.56;100.00
70304;BME280;57712;48.752;11.348;2023-07-22T00:51:35;97459.09;;;14.47;100.00
70304;BME280;57712;48.752;11.348;2023-07-22T00:54:01;97456.03;;;14.44;100.00
70304;BME280;57712;48.752;11.348;2023-07-22T00:56:33;97451.75;;;14.31;100.00
70304;BME280;57712;48.752;11.348;2023-07-22T00:59:02;97449.00;;;14.31;100.00
70304;BME280;57712;48.752;11.348;2023-07-22T01:01:29;97445.06;;;14.19;100.00
70304;BME280;57712;48.752;11.348;2023-07-22T01:03:56;97450.66;;;14.15;100.00
70304;BME280;57712;48.752;11.348;2023-07-22T01:06:23;97456.06;;;14.19;100.00
70304;BME280;57712;48.752;11.348;2023-07-22T01:08:52;97450.66;;;14.15;100.00
70304;BME280;57712;48.752;11.348;2023-07-22T01:11:18;97450.56;;;14.19;100.00
70304;BME280;57712;48.752;11.348;2023-07-22T01:13:45;97444.94;;;14.10;100.00
70304;BME280;57712;48.752;11.348;2023-07-22T01:16:12;97445.28;;;14.12;100.00
70304;BME280;57712;48.752;11.348;2023-07-22T01:18:39;97446.50;;;14.11;100.00
70304;BME280;57712;48.752;11.348;2023-07-22T01:21:08;97447.16;;;14.02;100.00
70304;BME280;57712;48.752;11.348;2023-07-22T01:23:36;97451.78;;;13.93;100.00
70304;BME280;57712;48.752;11.348;2023-07-22T01:26:03;97451.59;;;14.00;100.00
70304;BME280;57712;48.752;11.348;2023-07-22T01:28:30;97450.38;;;14.01;100.00
70304;BME280;57712;48.752;11.348;2023-07-22T01:30:56;97457.75;;;13.91;100.00
70304;BME280;57712;48.752;11.348;2023-07-22T01:33:23;97454.88;;;13.95;100.00
70304;BME280;57712;48.752;11.348;2023-07-22T01:35:50;97450.06;;;13.86;100.00
70304;BME280;57712;48.752;11.348;2023-07-22T01:38:16;97453.34;;;13.81;100.00
70304;BME280;57712;48.752;11.348;2023-07-22T01:40:43;97464.59;;;13.86;100.00
70304;BME280;57712;48.752;11.348;2023-07-22T01:43:10;97464.47;;;13.90;100.00
70304;BME280;57712;48.752;11.348;2023-07-22T01:45:37;97464.47;;;13.77;100.00
70304;BME280;57712;48.752;11.348;2023-07-22T01:48:05;97463.03;;;13.73;100.00
70304;BME280;57712;48.752;11.348;2023-07-22T01:50:33;97460.41;;;13.69;100.00
70304;BME280;57712;48.752;11.348;2023-07-22T01:53:00;97460.72;;;13.71;100.00
70304;BME280;57712;48.752;11.348;2023-07-22T01:55:26;97459.41;;;13.63;100.00
70304;BME280;57712;48.752;11.348;2023-07-22T01:57:54;97463.81;;;13.61;100.00
70304;BME280;57712;48.752;11.348;2023-07-22T02:00:21;97465.78;;;13.60;100.00
70304;BME280;57712;48.752;11.348;2023-07-22T02:02:48;97468.78;;;13.66;100.00
70304;BME280;57712;48.752;11.348;2023-07-22T02:05:14;97469.75;;;13.59;100.00
70304;BME280;57712;48.752;11.348;2023-07-22T02:07:41;97466.88;;;13.50;100.00
70304;BME280;57712;48.752;11.348;2023-07-22T02:10:08;97469.63;;;13.50;100.00
70304;BME280;57712;48.752;11.348;2023-07-22T02:12:36;97468.63;;;13.44;100.00
70304;BME280;57712;48.752;11.348;2023-07-22T02:15:03;97468.94;;;13.33;100.00
70304;BME280;57712;48.752;11.348;2023-07-22T02:17:29;97469.50;;;13.41;100.00
70304;BME280;57712;48.752;11.348;2023-07-22T02:19:57;97469.19;;;13.39;100.00
70304;BME280;57712;48.752;11.348;2023-07-22T02:22:24;97474.25;;;13.40;100.00
70304;BME280;57712;48.752;11.348;2023-07-22T02:24:50;97474.22;;;13.27;100.00
70304;BME280;57712;48.752;11.348;2023-07-22T02:27:17;97475.53;;;13.23;100.00
70304;BME280;57712;48.752;11.348;2023-07-22T02:29:44;97476.22;;;13.27;100.00
70304;BME280;57712;48.752;11.348;2023-07-22T02:32:11;97471.16;;;13.25;100.00
70304;BME280;57712;48.752;11.348;2023-07-22T02:34:37;97466.84;;;13.24;100.00
70304;BME280;57712;48.752;11.348;2023-07-22T02:37:04;97474.19;;;13.15;100.00
70304;BME280;57712;48.752;11.348;2023-07-22T02:39:31;97471.31;;;13.18;100.00
70304;BME280;57712;48.752;11.348;2023-07-22T02:41:58;97473.94;;;13.09;100.00
70304;BME280;57712;48.752;11.348;2023-07-22T02:44:25;97474.00;;;12.93;100.00
70304;BME280;57712;48.752;11.348;2023-07-22T02:46:51;97478.22;;;13.10;100.00
70304;BME280;57712;48.752;11.348;2023-07-22T02:49:19;97470.47;;;13.21;100.00
70304;BME280;57712;48.752;11.348;2023-07-22T02:51:46;97471.06;;;13.13;100.00
70304;BME280;57712;48.752;11.348;2023-07-22T02:54:13;97478.38;;;13.19;100.00
70304;BME280;57712;48.752;11.348;2023-07-22T02:56:40;97471.75;;;13.17;100.00
70304;BME280;57712;48.752;11.348;2023-07-22T02:59:07;97480.00;;;13.17;100.00
70304;BME280;57712;48.752;11.348;2023-07-22T03:01:35;97474.94;;;13.15;100.00
70304;BME280;57712;48.752;11.348;2023-07-22T03:04:02;97480.53;;;13.12;100.00
70304;BME280;57712;48.752;11.348;2023-07-22T03:06:30;97483.16;;;13.03;100.00
70304;BME280;57712;48.752;11.348;2023-07-22T03:08:57;97488.09;;;12.95;100.00
70304;BME280;57712;48.752;11.348;2023-07-22T03:11:24;97488.53;;;12.93;100.00
70304;BME280;57712;48.752;11.348;2023-07-22T03:13:51;97492.47;;;12.92;100.00
70304;BME280;57712;48.752;11.348;2023-07-22T03:16:18;97491.34;;;12.90;100.00
70304;BME280;57712;48.752;11.348;2023-07-22T03:18:45;97497.84;;;12.83;100.00
70304;BME280;57712;48.752;11.348;2023-07-22T03:21:11;97488.59;;;12.90;100.00
70304;BME280;57712;48.752;11.348;2023-07-22T03:23:38;97496.66;;;12.97;100.00
70304;BME280;57712;48.752;11.348;2023-07-22T03:26:06;97497.06;;;12.83;100.00
70304;BME280;57712;48.752;11.348;2023-07-22T03:28:33;97496.69;;;12.81;100.00
70304;BME280;57712;48.752;11.348;2023-07-22T03:31:00;97501.25;;;12.87;100.00
70304;BME280;57712;48.752;11.348;2023-07-22T03:33:26;97499.16;;;12.91;100.00
70304;BME280;57712;48.752;11.348;2023-07-22T03:35:53;97500.31;;;12.78;100.00
70304;BME280;57712;48.752;11.348;2023-07-22T03:38:20;97504.81;;;12.71;100.00
70304;BME280;57712;48.752;11.348;2023-07-22T03:40:47;97511.84;;;12.73;100.00
70304;BME280;57712;48.752;11.348;2023-07-22T03:43:14;97514.72;;;12.82;100.00
70304;BME280;57712;48.752;11.348;2023-07-22T03:45:40;97511.91;;;12.85;100.00
70304;BME280;57712;48.752;11.348;2023-07-22T03:48:07;97512.00;;;12.82;100.00
70304;BME280;57712;48.752;11.348;2023-07-22T03:50:35;97517.16;;;12.80;100.00
70304;BME280;57712;48.752;11.348;2023-07-22T03:53:02;97519.81;;;12.83;100.00
70304;BME280;57712;48.752;11.348;2023-07-22T03:55:29;97519.19;;;12.92;100.00
70304;BME280;57712;48.752;11.348;2023-07-22T03:57:55;97521.25;;;12.88;100.00
70304;BME280;57712;48.752;11.348;2023-07-22T04:00:22;97524.16;;;12.97;100.00
70304;BME280;57712;48.752;11.348;2023-07-22T04:02:49;97521.38;;;12.84;100.00
70304;BME280;57712;48.752;11.348;2023-07-22T04:05:17;97531.59;;;12.84;100.00
70304;BME280;57712;48.752;11.348;2023-07-22T04:07:44;97528.53;;;12.65;100.00
70304;BME280;57712;48.752;11.348;2023-07-22T04:10:12;97524.06;;;12.71;100.00
70304;BME280;57712;48.752;11.348;2023-07-22T04:12:38;97523.69;;;12.69;100.00
70304;BME280;57712;48.752;11.348;2023-07-22T04:15:08;97522.88;;;12.56;100.00
70304;BME280;57712;48.752;11.348;2023-07-22T04:17:35;97522.31;;;12.78;100.00
70304;BME280;57712;48.752;11.348;2023-07-22T04:20:02;97524.88;;;12.85;100.00
70304;BME280;57712;48.752;11.348;2023-07-22T04:22:30;97525.22;;;12.87;100.00
70304;BME280;57712;48.752;11.348;2023-07-22T04:24:56;97524.16;;;12.97;100.00
70304;BME280;57712;48.752;11.348;2023-07-22T04:27:23;97516.66;;;13.14;100.00
70304;BME280;57712;48.752;11.348;2023-07-22T04:29:50;97522.09;;;13.30;100.00
70304;BME280;57712;48.752;11.348;2023-07-22T04:32:17;97517.75;;;13.58;100.00
70304;BME280;57712;48.752;11.348;2023-07-22T04:34:44;97520.53;;;13.71;100.00
70304;BME280;57712;48.752;11.348;2023-07-22T04:37:10;97523.59;;;13.85;100.00
70304;BME280;57712;48.752;11.348;2023-07-22T04:39:37;97527.03;;;13.90;100.00
70304;BME280;57712;48.752;11.348;2023-07-22T04:42:04;97534.41;;;13.93;100.00
70304;BME280;57712;48.752;11.348;2023-07-22T04:44:30;97533.63;;;14.05;100.00
70304;BME280;57712;48.752;11.348;2023-07-22T04:46:57;97532.09;;;13.91;100.00
70304;BME280;57712;48.752;11.348;2023-07-22T04:49:24;97534.41;;;14.05;100.00
70304;BME280;57712;48.752;11.348;2023-07-22T04:51:51;97531.88;;;14.11;100.00
70304;BME280;57712;48.752;11.348;2023-07-22T04:54:18;97536.41;;;14.30;100.00
70304;BME280;57712;48.752;11.348;2023-07-22T04:56:45;97544.78;;;14.39;100.00
70304;BME280;57712;48.752;11.348;2023-07-22T04:59:12;97546.19;;;14.57;100.00
70304;BME280;57712;48.752;11.348;2023-07-22T05:01:41;97540.66;;;14.57;100.00
70304;BME280;57712;48.752;11.348;2023-07-22T05:04:08;97529.09;;;14.62;100.00
70304;BME280;57712;48.752;11.348;2023-07-22T05:06:35;97527.88;;;14.63;100.00
70304;BME280;57712;48.752;11.348;2023-07-22T05:09:02;97535.09;;;14.82;100.00
70304;BME280;57712;48.752;11.348;2023-07-22T05:11:30;97537.94;;;14.91;100.00
70304;BME280;57712;48.752;11.348;2023-07-22T05:13:57;97531.94;;;15.06;100.00
70304;BME280;57712;48.752;11.348;2023-07-22T05:16:24;97526.72;;;15.08;100.00
70304;BME280;57712;48.752;11.348;2023-07-22T05:18:51;97529.47;;;15.08;100.00
70304;BME280;57712;48.752;11.348;2023-07-22T05:21:18;97530.25;;;15.30;100.00
70304;BME280;57712;48.752;11.348;2023-07-22T05:23:45;97543.34;;;15.82;100.00
70304;BME280;57712;48.752;11.348;2023-07-22T05:26:12;97540.66;;;15.70;100.00
70304;BME280;57712;48.752;11.348;2023-07-22T05:28:38;97545.47;;;15.13;100.00
70304;BME280;57712;48.752;11.348;2023-07-22T05:31:05;97544.34;;;15.23;100.00
70304;BME280;57712;48.752;11.348;2023-07-22T05:33:33;97535.28;;;15.97;100.00
70304;BME280;57712;48.752;11.348;2023-07-22T05:36:00;97532.97;;;15.65;100.00
70304;BME280;57712;48.752;11.348;2023-07-22T05:38:28;97530.06;;;15.99;100.00
70304;BME280;57712;48.752;11.348;2023-07-22T05:40:55;97535.34;;;16.06;100.00
70304;BME280;57712;48.752;11.348;2023-07-22T05:43:22;97538.03;;;16.28;100.00
70304;BME280;57712;48.752;11.348;2023-07-22T05:45:49;97544.75;;;16.18;100.00
70304;BME280;57712;48.752;11.348;2023-07-22T05:48:16;97553.56;;;16.44;100.00
70304;BME280;57712;48.752;11.348;2023-07-22T05:50:43;97554.34;;;16.04;100.00
70304;BME280;57712;48.752;11.348;2023-07-22T05:53:10;97554.06;;;16.11;100.00
70304;BME280;57712;48.752;11.348;2023-07-22T05:55:37;97550.47;;;16.33;100.00
70304;BME280;57712;48.752;11.348;2023-07-22T05:58:04;97557.78;;;16.58;100.00
70304;BME280;57712;48.752;11.348;2023-07-22T06:00:37;97554.97;;;16.08;100.00
70304;BME280;57712;48.752;11.348;2023-07-22T06:03:07;97555.41;;;16.38;100.00
70304;BME280;57712;48.752;11.348;2023-07-22T06:05:33;97554.59;;;16.78;100.00
70304;BME280;57712;48.752;11.348;2023-07-22T06:08:00;97553.38;;;17.06;100.00
70304;BME280;57712;48.752;11.348;2023-07-22T06:10:27;97555.88;;;17.22;100.00
70304;BME280;57712;48.752;11.348;2023-07-22T06:12:54;97556.00;;;17.37;100.00
70304;BME280;57712;48.752;11.348;2023-07-22T06:15:21;97561.41;;;17.41;100.00
70304;BME280;57712;48.752;11.348;2023-07-22T06:17:48;97559.69;;;17.34;100.00
70304;BME280;57712;48.752;11.348;2023-07-22T06:20:15;97559.22;;;17.26;100.00
70304;BME280;57712;48.752;11.348;2023-07-22T06:22:42;97562.31;;;17.01;100.00
70304;BME280;57712;48.752;11.348;2023-07-22T06:25:09;97563.19;;;17.71;100.00
70304;BME280;57712;48.752;11.348;2023-07-22T06:27:36;97561.94;;;17.81;100.00
70304;BME280;57712;48.752;11.348;2023-07-22T06:30:03;97558.94;;;17.43;100.00
70304;BME280;57712;48.752;11.348;2023-07-22T06:32:29;97560.28;;;17.84;100.00
70304;BME280;57712;48.752;11.348;2023-07-22T06:34:57;97561.34;;;17.68;100.00
70304;BME280;57712;48.752;11.348;2023-07-22T06:37:24;97568.94;;;18.19;100.00
70304;BME280;57712;48.752;11.348;2023-07-22T06:39:51;97577.75;;;18.41;100.00
70304;BME280;57712;48.752;11.348;2023-07-22T06:42:18;97573.38;;;18.59;100.00
70304;BME280;57712;48.752;11.348;2023-07-22T06:44:45;97573.72;;;18.52;100.00
70304;BME280;57712;48.752;11.348;2023-07-22T06:47:12;97576.84;;;19.01;100.00
70304;BME280;57712;48.752;11.348;2023-07-22T06:49:39;97572.81;;;19.02;100.00
70304;BME280;57712;48.752;11.348;2023-07-22T06:52:10;97573.47;;;18.73;100.00
70304;BME280;57712;48.752;11.348;2023-07-22T06:54:37;97578.47;;;18.84;100.00
70304;BME280;57712;48.752;11.348;2023-07-22T06:57:04;97568.28;;;18.66;100.00
70304;BME280;57712;48.752;11.348;2023-07-22T06:59:32;97578.84;;;18.77;100.00
70304;BME280;57712;48.752;11.348;2023-07-22T07:01:59;97573.31;;;19.40;100.00
70304;BME280;57712;48.752;11.348;2023-07-22T07:04:26;97566.16;;;19.63;100.00
70304;BME280;57712;48.752;11.348;2023-07-22T07:06:53;97572.97;;;19.76;100.00
70304;BME280;57712;48.752;11.348;2023-07-22T07:09:20;97569.63;;;20.02;100.00
70304;BME280;57712;48.752;11.348;2023-07-22T07:11:47;97572.88;;;20.15;100.00
70304;BME280;57712;48.752;11.348;2023-07-22T07:14:13;97581.22;;;20.00;100.00
70304;BME280;57712;48.752;11.348;2023-07-22T07:16:40;97590.94;;;19.51;100.00
70304;BME280;57712;48.752;11.348;2023-07-22T07:19:10;97578.16;;;20.13;100.00
70304;BME280;57712;48.752;11.348;2023-07-22T07:21:38;97578.28;;;20.39;100.00
70304;BME280;57712;48.752;11.348;2023-07-22T07:24:05;97585.75;;;20.62;100.00
70304;BME280;57712;48.752;11.348;2023-07-22T07:26:31;97587.94;;;20.08;100.00
70304;BME280;57712;48.752;11.348;2023-07-22T07:28:58;97585.03;;;20.17;100.00
70304;BME280;57712;48.752;11.348;2023-07-22T07:31:24;97584.13;;;20.91;100.00
70304;BME280;57712;48.752;11.348;2023-07-22T07:33:51;97580.06;;;20.92;100.00
70304;BME280;57712;48.752;11.348;2023-07-22T07:36:20;97583.28;;;21.46;100.00
70304;BME280;57712;48.752;11.348;2023-07-22T07:38:47;97586.78;;;21.41;100.00
70304;BME280;57712;48.752;11.348;2023-07-22T07:41:14;97587.19;;;21.33;100.00
70304;BME280;57712;48.752;11.348;2023-07-22T07:43:41;97581.63;;;21.33;100.00
70304;BME280;57712;48.752;11.348;2023-07-22T07:48:56;97569.34;;;21.98;100.00
70304;BME280;57712;48.752;11.348;2023-07-22T07:51:24;97578.72;;;21.95;100.00
70304;BME280;57712;48.752;11.348;2023-07-22T07:53:54;97584.84;;;21.06;100.00
70304;BME280;57712;48.752;11.348;2023-07-22T07:56:21;97577.56;;;20.94;100.00
70304;BME280;57712;48.752;11.348;2023-07-22T07:58:49;97584.84;;;21.47;100.00
70304;BME280;57712;48.752;11.348;2023-07-22T08:01:17;97580.97;;;20.83;100.00
70304;BME280;57712;48.752;11.348;2023-07-22T08:03:44;97585.50;;;21.62;100.00
70304;BME280;57712;48.752;11.348;2023-07-22T08:06:12;97588.56;;;21.23;100.00
70304;BME280;57712;48.752;11.348;2023-07-22T08:08:40;97589.22;;;21.33;100.00
70304;BME280;57712;48.752;11.348;2023-07-22T08:11:09;97591.41;;;21.96;100.00
70304;BME280;57712;48.752;11.348;2023-07-22T08:13:37;97594.31;;;21.35;100.00
70304;BME280;57712;48.752;11.348;2023-07-22T08:16:05;97596.50;;;21.71;100.00
70304;BME280;57712;48.752;11.348;2023-07-22T08:18:34;97589.56;;;21.20;100.00
70304;BME280;57712;48.752;11.348;2023-07-22T08:21:05;97590.19;;;20.89;100.00
70304;BME280;57712;48.752;11.348;2023-07-22T08:23:35;97595.75;;;21.10;100.00
70304;BME280;57712;48.752;11.348;2023-07-22T08:26:03;97578.63;;;22.09;100.00
70304;BME280;57712;48.752;11.348;2023-07-22T08:28:34;97592.31;;;21.87;100.00
70304;BME280;57712;48.752;11.348;2023-07-22T08:31:01;97601.53;;;21.93;100.00
70304;BME280;57712;48.752;11.348;2023-07-22T08:33:28;97584.06;;;22.24;100.00
70304;BME280;57712;48.752;11.348;2023-07-22T08:36:08;97579.09;;;22.39;100.00
70304;BME280;57712;48.752;11.348;2023-07-22T08:38:34;97581.06;;;22.02;96.70
70304;BME280;57712;48.752;11.348;2023-07-22T08:41:01;97580.69;;;21.88;100.00
70304;BME280;57712;48.752;11.348;2023-07-22T08:43:29;97586.56;;;21.44;97.76
70304;BME280;57712;48.752;11.348;2023-07-22T08:46:00;97580.66;;;22.46;100.00
70304;BME280;57712;48.752;11.348;2023-07-22T08:48:30;97573.25;;;22.37;100.00
70304;BME280;57712;48.752;11.348;2023-07-22T08:51:16;97568.53;;;21.92;100.00
70304;BME280;57712;48.752;11.348;2023-07-22T08:53:44;97572.06;;;22.50;100.00
70304;BME280;57712;48.752;11.348;2023-07-22T08:56:26;97566.31;;;22.64;99.38
70304;BME280;57712;48.752;11.348;2023-07-22T08:58:54;97566.31;;;22.27;96.67
70304;BME280;57712;48.752;11.348;2023-07-22T09:01:21;97560.88;;;22.44;96.94
70304;BME280;57712;48.752;11.348;2023-07-22T09:03:49;97566.22;;;22.85;90.65
70304;BME280;57712;48.752;11.348;2023-07-22T09:06:19;97563.38;;;23.44;82.98
70304;BME280;57712;48.752;11.348;2023-07-22T09:08:46;97571.22;;;22.75;84.18
70304;BME280;57712;48.752;11.348;2023-07-22T09:11:15;97563.03;;;22.71;86.17
70304;BME280;57712;48.752;11.348;2023-07-22T09:13:44;97566.56;;;23.03;84.88
70304;BME280;57712;48.752;11.348;2023-07-22T09:16:11;97566.19;;;23.39;80.13
70304;BME280;57712;48.752;11.348;2023-07-22T09:18:39;97563.97;;;23.59;89.39
70304;BME280;57712;48.752;11.348;2023-07-22T09:21:06;97567.81;;;23.96;77.21
70304;BME280;57712;48.752;11.348;2023-07-22T09:23:37;97561.75;;;23.10;77.97
70304;BME280;57712;48.752;11.348;2023-07-22T09:26:17;97560.78;;;23.24;78.13
70304;BME280;57712;48.752;11.348;2023-07-22T09:28:55;97550.63;;;23.32;72.15
70304;BME280;57712;48.752;11.348;2023-07-22T09:31:24;97553.56;;;23.82;68.49
70304;BME280;57712;48.752;11.348;2023-07-22T09:33:52;97549.28;;;23.98;64.02
70304;BME280;57712;48.752;11.348;2023-07-22T09:36:22;97546.41;;;23.65;63.74
70304;BME280;57712;48.752;11.348;2023-07-22T09:39:02;97548.72;;;23.60;68.89
70304;BME280;57712;48.752;11.348;2023-07-22T09:41:30;97541.88;;;24.29;63.49
70304;BME280;57712;48.752;11.348;2023-07-22T09:43:57;97545.44;;;23.79;63.52
70304;BME280;57712;48.752;11.348;2023-07-22T09:46:31;97531.44;;;24.12;63.38
70304;BME280;57712;48.752;11.348;2023-07-22T09:49:02;97542.38;;;23.94;62.32
70304;BME280;57712;48.752;11.348;2023-07-22T09:51:34;97542.88;;;23.75;65.28
70304;BME280;57712;48.752;11.348;2023-07-22T09:54:08;97536.03;;;24.10;76.07
70304;BME280;57712;48.752;11.348;2023-07-22T09:56:46;97534.22;;;23.73;62.85
70304;BME280;57712;48.752;11.348;2023-07-22T09:59:13;97537.97;;;23.42;63.04
70304;BME280;57712;48.752;11.348;2023-07-22T10:01:40;97541.63;;;23.93;65.81
70304;BME280;57712;48.752;11.348;2023-07-22T10:04:08;97543.41;;;23.85;62.47
70304;BME280;57712;48.752;11.348;2023-07-22T10:06:37;97528.88;;;24.26;66.39
70304;BME280;57712;48.752;11.348;2023-07-22T10:09:05;97528.91;;;24.37;62.06
70304;BME280;57712;48.752;11.348;2023-07-22T10:11:35;97532.19;;;24.52;63.79
70304;BME280;57712;48.752;11.348;2023-07-22T10:14:02;97526.97;;;24.90;57.63
70304;BME280;57712;48.752;11.348;2023-07-22T10:16:29;97536.50;;;24.59;57.68
70304;BME280;57712;48.752;11.348;2023-07-22T10:18:57;97536.03;;;23.82;56.84
70304;BME280;57712;48.752;11.348;2023-07-22T10:21:25;97525.59;;;25.24;61.53
70304;BME280;57712;48.752;11.348;2023-07-22T10:23:53;97502.50;;;24.96;58.57
70304;BME280;57712;48.752;11.348;2023-07-22T10:26:21;97515.41;;;24.35;53.95
70304;BME280;57712;48.752;11.348;2023-07-22T10:29:08;97530.09;;;24.81;54.38
70304;BME280;57712;48.752;11.348;2023-07-22T10:31:35;97521.94;;;26.12;49.64
70304;BME280;57712;48.752;11.348;2023-07-22T10:34:03;97516.22;;;24.99;48.67
70304;BME280;57712;48.752;11.348;2023-07-22T10:36:30;97504.97;;;25.16;49.02
70304;BME280;57712;48.752;11.348;2023-07-22T10:38:59;97508.53;;;26.29;52.85
70304;BME280;57712;48.752;11.348;2023-07-22T10:41:29;97505.19;;;26.01;47.71
70304;BME280;57712;48.752;11.348;2023-07-22T10:43:58;97505.91;;;25.36;48.98
70304;BME280;57712;48.752;11.348;2023-07-22T10:46:36;97512.03;;;25.75;47.90
70304;BME280;57712;48.752;11.348;2023-07-22T10:49:11;97511.03;;;26.38;47.21
70304;BME280;57712;48.752;11.348;2023-07-22T10:51:38;97506.72;;;25.66;45.25
70304;BME280;57712;48.752;11.348;2023-07-22T10:54:13;97511.94;;;24.93;45.74
70304;BME280;57712;48.752;11.348;2023-07-22T10:56:44;97495.34;;;25.12;47.57
70304;BME280;57712;48.752;11.348;2023-07-22T10:59:11;97496.56;;;25.93;47.23
70304;BME280;57712;48.752;11.348;2023-07-22T11:01:44;97495.53;;;25.19;46.63
70304;BME280;57712;48.752;11.348;2023-07-22T11:04:24;97499.00;;;25.37;47.16
70304;BME280;57712;48.752;11.348;2023-07-22T11:07:30;97478.63;;;26.02;44.38
70304;BME280;57712;48.752;11.348;2023-07-22T11:09:56;97480.75;;;25.96;44.71
70304;BME280;57712;48.752;11.348;2023-07-22T11:12:24;97476.66;;;25.97;48.55
70304;BME280;57712;48.752;11.348;2023-07-22T11:14:53;97479.78;;;25.52;47.06
70304;BME280;57712;48.752;11.348;2023-07-22T11:17:29;97483.88;;;23.73;47.77
70304;BME280;57712;48.752;11.348;2023-07-22T11:20:00;97488.06;;;24.81;47.70
70304;BME280;57712;48.752;11.348;2023-07-22T11:22:27;97476.53;;;24.90;46.83
70304;BME280;57712;48.752;11.348;2023-07-22T11:24:56;97476.66;;;24.56;47.46
70304;BME280;57712;48.752;11.348;2023-07-22T11:27:24;97473.81;;;24.67;47.82
70304;BME280;57712;48.752;11.348;2023-07-22T11:29:51;97478.41;;;24.59;46.73
70304;BME280;57712;48.752;11.348;2023-07-22T11:32:19;97472.16;;;24.14;48.47
70304;BME280;57712;48.752;11.348;2023-07-22T11:35:06;97476.78;;;24.92;49.40
70304;BME280;57712;48.752;11.348;2023-07-22T11:37:33;97471.06;;;26.21;44.50
70304;BME280;57712;48.752;11.348;2023-07-22T11:40:01;97463.81;;;26.31;47.19
70304;BME280;57712;48.752;11.348;2023-07-22T11:42:28;97453.28;;;27.05;45.31
70304;BME280;57712;48.752;11.348;2023-07-22T11:44:56;97457.25;;;25.99;44.55
70304;BME280;57712;48.752;11.348;2023-07-22T11:47:29;97457.38;;;27.23;44.64
70304;BME280;57712;48.752;11.348;2023-07-22T11:49:57;97459.59;;;26.87;42.98
70304;BME280;57712;48.752;11.348;2023-07-22T11:52:24;97451.28;;;26.32;43.79
70304;BME280;57712;48.752;11.348;2023-07-22T11:54:51;97447.03;;;25.30;42.83
70304;BME280;57712;48.752;11.348;2023-07-22T11:57:19;97441.88;;;24.93;44.43
70304;BME280;57712;48.752;11.348;2023-07-22T11:59:47;97436.38;;;24.70;45.28
70304;BME280;57712;48.752;11.348;2023-07-22T12:02:17;97439.56;;;24.39;46.24
70304;BME280;57712;48.752;11.348;2023-07-22T12:05:00;97439.78;;;24.46;46.94
70304;BME280;57712;48.752;11.348;2023-07-22T12:07:37;97434.47;;;24.90;45.58
70304;BME280;57712;48.752;11.348;2023-07-22T12:10:05;97432.91;;;25.47;46.46
70304;BME280;57712;48.752;11.348;2023-07-22T12:12:37;97440.03;;;25.48;45.31
70304;BME280;57712;48.752;11.348;2023-07-22T12:15:21;97427.16;;;26.67;43.68
70304;BME280;57712;48.752;11.348;2023-07-22T12:17:51;97419.66;;;26.94;43.49
70304;BME280;57712;48.752;11.348;2023-07-22T12:20:19;97425.41;;;25.90;44.34
70304;BME280;57712;48.752;11.348;2023-07-22T12:22:45;97427.09;;;26.72;44.83
70304;BME280;57712;48.752;11.348;2023-07-22T12:25:12;97415.00;;;26.10;43.26
70304;BME280;57712;48.752;11.348;2023-07-22T12:27:39;97422.25;;;26.24;43.95
70304;BME280;57712;48.752;11.348;2023-07-22T12:30:06;97418.44;;;27.27;42.25
70304;BME280;57712;48.752;11.348;2023-07-22T12:32:34;97411.06;;;27.75;42.32
70304;BME280;57712;48.752;11.348;2023-07-22T12:35:01;97406.97;;;28.02;43.11
70304;BME280;57712;48.752;11.348;2023-07-22T12:37:29;97409.16;;;26.75;40.39
70304;BME280;57712;48.752;11.348;2023-07-22T12:39:56;97399.91;;;26.99;42.64
70304;BME280;57712;48.752;11.348;2023-07-22T12:42:23;97397.59;;;26.98;42.99
70304;BME280;57712;48.752;11.348;2023-07-22T12:44:49;97391.81;;;27.28;41.10
70304;BME280;57712;48.752;11.348;2023-07-22T12:47:16;97399.34;;;27.71;41.56
70304;BME280;57712;48.752;11.348;2023-07-22T12:49:43;97391.63;;;28.16;40.68